Merced, CA (95341)

10:28 AM PST on February 28, 2015 (GMT -0800)
North Merced | Change Station
CLOSE
Current Station
Personal Weather Station
Location: Merced, CA
Elevation: 184 ft
Nearby Weather Stations

Elev 184 ft 37.34 °N, 120.46 °W | Updated 6 seconds ago

Clear
Clear
54.6 °F
Feels Like 54.6 °F
N
3.0
Wind Variable Wind from SE
Gusts 5.0 mph

Today
High -- | Low -- °F
--% Chance of Precip.
Yesterday
High -- | Low -- °F
Precip. -- in
6:34 AM 5:54 PM
Waxing Gibbous, 79% visible
Pressure 29.81 in
Visibility 10.0 miles
Clouds Overcast 4900 ft
Dew Point 44 °F
Humidity 67%
Rainfall 0.00 in
Snow Depth Not available.
UV 1 out of 12
Pollen 4.50 out of 12
Air Quality Not available.
Flu Activity Not available.
METAR KMCE 281753Z AUTO 17007KT 10SM OVC049 12/06 A2981 RMK AO2 SLP095 T01170061 10122 20022 51017

More Conditions Fewer Conditions

Pressure 29.81 in
Visibility 10.0 miles
Clouds Overcast 4900 ft
Dew Point 44 °F
Humidity 67%
Rainfall 0.00 in
Snow Depth Not available.
UV 1 out of 12
Pollen 4.50 out of 12
Air Quality Not available.
Flu Activity Not available.
METAR KMCE 281753Z AUTO 17007KT 10SM OVC049 12/06 A2981 RMK AO2 SLP095 T01170061 10122 20022 51017

More Conditions Fewer Conditions

10-Day Weather Forecast

Almanac

Astronomy

Feb. 28, 2015 Rise Set
Actual Time
Civil Twilight
Nautical Twilight
Astronomical Twilight
Moon
Length of Visible Light
Length of Day
Tomorrow will be .
, % of the Moon is Illuminated

Today's Extremes

State Highs State Lows

Community

WunderPhotos

Upload Photos

1,801,106 photos uploaded!

WunderBlogs® & News

Nearby

Air Quality

  Air Quality AQ Index Pollutant
Not available.

Snow Depth

Station Depth Elevation

Earthquake Activity

City Distance Mag. Time & Date
Minimum magnitude displayed is 2.5.

Coastal Water Temperatures

Place Temperature

Nearby Weather Stations